sensor_id;sensor_type;location;lat;lon;timestamp;temperature;humidity
10788;DHT22;5446;50.826;4.380;2023-07-02T00:00:29;16.80;99.90
10788;DHT22;5446;50.826;4.380;2023-07-02T00:02:55;16.70;99.90
10788;DHT22;5446;50.826;4.380;2023-07-02T00:05:20;16.70;99.90
10788;DHT22;5446;50.826;4.380;2023-07-02T00:07:46;16.70;99.90
10788;DHT22;5446;50.826;4.380;2023-07-02T00:10:12;16.70;99.90
10788;DHT22;5446;50.826;4.380;2023-07-02T00:12:38;16.70;99.90
10788;DHT22;5446;50.826;4.380;2023-07-02T00:15:04;16.70;99.90
10788;DHT22;5446;50.826;4.380;2023-07-02T00:17:30;16.70;99.90
10788;DHT22;5446;50.826;4.380;2023-07-02T00:19:55;16.70;99.90
10788;DHT22;5446;50.826;4.380;2023-07-02T00:22:21;16.70;99.90
10788;DHT22;5446;50.826;4.380;2023-07-02T00:24:47;16.70;99.90
10788;DHT22;5446;50.826;4.380;2023-07-02T00:27:13;16.70;99.90
10788;DHT22;5446;50.826;4.380;2023-07-02T00:29:38;16.70;99.90
10788;DHT22;5446;50.826;4.380;2023-07-02T00:32:05;16.70;99.90
10788;DHT22;5446;50.826;4.380;2023-07-02T00:34:30;16.70;99.90
10788;DHT22;5446;50.826;4.380;2023-07-02T00:36:56;16.70;99.90
10788;DHT22;5446;50.826;4.380;2023-07-02T00:39:22;16.70;99.90
10788;DHT22;5446;50.826;4.380;2023-07-02T00:41:47;16.70;99.90
10788;DHT22;5446;50.826;4.380;2023-07-02T00:44:13;16.70;99.90
10788;DHT22;5446;50.826;4.380;2023-07-02T00:46:39;16.70;99.90
10788;DHT22;5446;50.826;4.380;2023-07-02T00:49:06;16.60;99.90
10788;DHT22;5446;50.826;4.380;2023-07-02T00:51:33;16.60;99.90
10788;DHT22;5446;50.826;4.380;2023-07-02T00:53:59;16.60;99.90
10788;DHT22;5446;50.826;4.380;2023-07-02T00:56:26;16.50;99.90
10788;DHT22;5446;50.826;4.380;2023-07-02T00:58:54;16.50;99.90
10788;DHT22;5446;50.826;4.380;2023-07-02T01:01:24;16.50;99.90
10788;DHT22;5446;50.826;4.380;2023-07-02T01:03:58;16.50;99.90
10788;DHT22;5446;50.826;4.380;2023-07-02T01:06:28;16.50;99.90
10788;DHT22;5446;50.826;4.380;2023-07-02T01:08:56;16.50;99.90
10788;DHT22;5446;50.826;4.380;2023-07-02T01:11:33;16.50;99.90
10788;DHT22;5446;50.826;4.380;2023-07-02T01:14:05;16.50;99.90
10788;DHT22;5446;50.826;4.380;2023-07-02T01:16:32;16.50;99.90
10788;DHT22;5446;50.826;4.380;2023-07-02T01:19:02;16.50;99.90
10788;DHT22;5446;50.826;4.380;2023-07-02T01:21:30;16.50;99.90
10788;DHT22;5446;50.826;4.380;2023-07-02T01:23:58;16.50;99.90
10788;DHT22;5446;50.826;4.380;2023-07-02T01:26:29;16.50;99.90
10788;DHT22;5446;50.826;4.380;2023-07-02T01:28:56;16.50;99.90
10788;DHT22;5446;50.826;4.380;2023-07-02T01:31:22;16.50;99.90
10788;DHT22;5446;50.826;4.380;2023-07-02T01:33:51;16.50;99.90
10788;DHT22;5446;50.826;4.380;2023-07-02T01:36:17;16.50;99.90
10788;DHT22;5446;50.826;4.380;2023-07-02T01:38:42;16.50;99.90
10788;DHT22;5446;50.826;4.380;2023-07-02T01:41:08;16.60;99.90
10788;DHT22;5446;50.826;4.380;2023-07-02T01:43:34;16.60;99.90
10788;DHT22;5446;50.826;4.380;2023-07-02T01:45:59;16.50;99.90
10788;DHT22;5446;50.826;4.380;2023-07-02T01:48:27;16.60;99.90
10788;DHT22;5446;50.826;4.380;2023-07-02T01:50:52;16.60;99.90
10788;DHT22;5446;50.826;4.380;2023-07-02T01:53:18;16.60;99.90
10788;DHT22;5446;50.826;4.380;2023-07-02T01:55:44;16.50;99.90
10788;DHT22;5446;50.826;4.380;2023-07-02T01:58:11;16.50;99.90
10788;DHT22;5446;50.826;4.380;2023-07-02T02:00:37;16.50;99.90
10788;DHT22;5446;50.826;4.380;2023-07-02T02:03:04;16.50;99.90
10788;DHT22;5446;50.826;4.380;2023-07-02T02:05:30;16.50;99.90
10788;DHT22;5446;50.826;4.380;2023-07-02T02:07:55;16.50;99.90
10788;DHT22;5446;50.826;4.380;2023-07-02T02:10:21;16.50;99.90
10788;DHT22;5446;50.826;4.380;2023-07-02T02:12:47;16.50;99.90
10788;DHT22;5446;50.826;4.380;2023-07-02T02:15:12;16.50;99.90
10788;DHT22;5446;50.826;4.380;2023-07-02T02:17:39;16.40;99.90
10788;DHT22;5446;50.826;4.380;2023-07-02T02:20:06;16.40;99.90
10788;DHT22;5446;50.826;4.380;2023-07-02T02:22:32;16.40;99.90
10788;DHT22;5446;50.826;4.380;2023-07-02T02:24:58;16.30;99.90
10788;DHT22;5446;50.826;4.380;2023-07-02T02:27:23;16.30;99.90
10788;DHT22;5446;50.826;4.380;2023-07-02T02:29:49;16.30;99.90
10788;DHT22;5446;50.826;4.380;2023-07-02T02:32:15;16.30;99.90
10788;DHT22;5446;50.826;4.380;2023-07-02T02:34:42;16.20;99.90
10788;DHT22;5446;50.826;4.380;2023-07-02T02:37:08;16.20;99.90
10788;DHT22;5446;50.826;4.380;2023-07-02T02:39:34;16.20;99.90
10788;DHT22;5446;50.826;4.380;2023-07-02T02:41:59;16.20;99.90
10788;DHT22;5446;50.826;4.380;2023-07-02T02:44:25;16.10;99.90
10788;DHT22;5446;50.826;4.380;2023-07-02T02:46:51;16.10;99.90
10788;DHT22;5446;50.826;4.380;2023-07-02T02:52:39;16.00;99.90
10788;DHT22;5446;50.826;4.380;2023-07-02T02:55:06;16.00;99.90
10788;DHT22;5446;50.826;4.380;2023-07-02T02:57:33;15.90;99.90
10788;DHT22;5446;50.826;4.380;2023-07-02T02:59:59;16.00;99.90
10788;DHT22;5446;50.826;4.380;2023-07-02T03:02:25;15.90;99.90
10788;DHT22;5446;50.826;4.380;2023-07-02T03:04:51;15.90;99.90
10788;DHT22;5446;50.826;4.380;2023-07-02T03:07:17;15.90;99.90
10788;DHT22;5446;50.826;4.380;2023-07-02T03:09:43;15.80;99.90
10788;DHT22;5446;50.826;4.380;2023-07-02T03:12:09;15.80;99.90
10788;DHT22;5446;50.826;4.380;2023-07-02T03:14:34;15.80;99.90
10788;DHT22;5446;50.826;4.380;2023-07-02T03:17:00;15.80;99.90
10788;DHT22;5446;50.826;4.380;2023-07-02T03:19:26;15.80;99.90
10788;DHT22;5446;50.826;4.380;2023-07-02T03:21:52;15.80;99.90
10788;DHT22;5446;50.826;4.380;2023-07-02T03:24:21;15.70;99.90
10788;DHT22;5446;50.826;4.380;2023-07-02T03:26:47;15.70;99.90
10788;DHT22;5446;50.826;4.380;2023-07-02T03:29:12;15.70;99.90
10788;DHT22;5446;50.826;4.380;2023-07-02T03:31:39;15.70;99.90
10788;DHT22;5446;50.826;4.380;2023-07-02T03:34:07;15.70;99.90
10788;DHT22;5446;50.826;4.380;2023-07-02T03:36:33;15.60;99.90
10788;DHT22;5446;50.826;4.380;2023-07-02T03:38:59;15.60;99.90
10788;DHT22;5446;50.826;4.380;2023-07-02T03:41:25;15.70;99.90
10788;DHT22;5446;50.826;4.380;2023-07-02T03:43:50;15.60;99.90
10788;DHT22;5446;50.826;4.380;2023-07-02T03:46:16;15.60;99.90
10788;DHT22;5446;50.826;4.380;2023-07-02T03:48:42;15.60;99.90
10788;DHT22;5446;50.826;4.380;2023-07-02T03:51:08;15.50;99.90
10788;DHT22;5446;50.826;4.380;2023-07-02T03:53:34;15.50;99.90
10788;DHT22;5446;50.826;4.380;2023-07-02T03:55:59;15.50;99.90
10788;DHT22;5446;50.826;4.380;2023-07-02T03:58:25;15.50;99.90
10788;DHT22;5446;50.826;4.380;2023-07-02T04:00:51;15.40;99.90
10788;DHT22;5446;50.826;4.380;2023-07-02T04:03:17;15.50;99.90
10788;DHT22;5446;50.826;4.380;2023-07-02T04:05:43;15.50;99.90
10788;DHT22;5446;50.826;4.380;2023-07-02T04:08:10;15.50;99.90
10788;DHT22;5446;50.826;4.380;2023-07-02T04:10:36;15.50;99.90
10788;DHT22;5446;50.826;4.380;2023-07-02T04:13:02;15.50;99.90
10788;DHT22;5446;50.826;4.380;2023-07-02T04:15:28;15.40;99.90
10788;DHT22;5446;50.826;4.380;2023-07-02T04:17:54;15.50;99.90
10788;DHT22;5446;50.826;4.380;2023-07-02T04:20:20;15.50;99.90
10788;DHT22;5446;50.826;4.380;2023-07-02T04:22:46;15.50;99.90
10788;DHT22;5446;50.826;4.380;2023-07-02T04:25:13;15.50;99.90
10788;DHT22;5446;50.826;4.380;2023-07-02T04:27:42;15.50;99.90
10788;DHT22;5446;50.826;4.380;2023-07-02T04:30:12;15.50;99.90
10788;DHT22;5446;50.826;4.380;2023-07-02T04:32:38;15.40;99.90
10788;DHT22;5446;50.826;4.380;2023-07-02T04:35:08;15.50;99.90
10788;DHT22;5446;50.826;4.380;2023-07-02T04:37:34;15.50;99.90
10788;DHT22;5446;50.826;4.380;2023-07-02T04:40:00;15.50;99.90
10788;DHT22;5446;50.826;4.380;2023-07-02T04:42:26;15.50;99.90
10788;DHT22;5446;50.826;4.380;2023-07-02T04:48:01;15.60;99.90
10788;DHT22;5446;50.826;4.380;2023-07-02T04:50:27;15.70;99.90
10788;DHT22;5446;50.826;4.380;2023-07-02T04:52:53;15.60;99.90
10788;DHT22;5446;50.826;4.380;2023-07-02T04:55:19;15.60;99.90
10788;DHT22;5446;50.826;4.380;2023-07-02T04:57:44;15.60;99.90
10788;DHT22;5446;50.826;4.380;2023-07-02T05:00:10;15.60;99.90
10788;DHT22;5446;50.826;4.380;2023-07-02T05:02:38;15.60;99.90
10788;DHT22;5446;50.826;4.380;2023-07-02T05:05:04;15.60;99.90
10788;DHT22;5446;50.826;4.380;2023-07-02T05:07:29;15.70;99.90
10788;DHT22;5446;50.826;4.380;2023-07-02T05:09:55;15.80;99.90
10788;DHT22;5446;50.826;4.380;2023-07-02T05:12:21;15.80;99.90
10788;DHT22;5446;50.826;4.380;2023-07-02T05:14:47;15.90;99.90
10788;DHT22;5446;50.826;4.380;2023-07-02T05:17:12;15.90;99.90
10788;DHT22;5446;50.826;4.380;2023-07-02T05:19:40;15.90;99.90
10788;DHT22;5446;50.826;4.380;2023-07-02T05:22:06;15.90;99.90
10788;DHT22;5446;50.826;4.380;2023-07-02T05:24:32;16.00;99.90
10788;DHT22;5446;50.826;4.380;2023-07-02T05:26:58;15.90;99.90
10788;DHT22;5446;50.826;4.380;2023-07-02T05:29:25;15.90;99.90
10788;DHT22;5446;50.826;4.380;2023-07-02T05:31:50;15.90;99.90
10788;DHT22;5446;50.826;4.380;2023-07-02T05:34:16;16.00;99.90
10788;DHT22;5446;50.826;4.380;2023-07-02T05:36:42;16.00;99.90
10788;DHT22;5446;50.826;4.380;2023-07-02T05:39:07;16.10;99.90
10788;DHT22;5446;50.826;4.380;2023-07-02T05:41:33;16.30;99.90
10788;DHT22;5446;50.826;4.380;2023-07-02T05:44:00;16.30;99.90
10788;DHT22;5446;50.826;4.380;2023-07-02T05:46:25;16.40;99.90
10788;DHT22;5446;50.826;4.380;2023-07-02T05:48:51;16.30;99.90
10788;DHT22;5446;50.826;4.380;2023-07-02T05:51:21;16.30;99.90
10788;DHT22;5446;50.826;4.380;2023-07-02T05:53:47;16.30;99.90
10788;DHT22;5446;50.826;4.380;2023-07-02T05:56:13;16.30;99.90
10788;DHT22;5446;50.826;4.380;2023-07-02T05:58:39;16.40;99.90
10788;DHT22;5446;50.826;4.380;2023-07-02T06:01:04;16.50;99.90
10788;DHT22;5446;50.826;4.380;2023-07-02T06:03:31;16.50;99.90
10788;DHT22;5446;50.826;4.380;2023-07-02T06:05:57;16.50;99.90
10788;DHT22;5446;50.826;4.380;2023-07-02T06:08:23;16.70;99.90
10788;DHT22;5446;50.826;4.380;2023-07-02T06:10:48;16.80;99.90
10788;DHT22;5446;50.826;4.380;2023-07-02T06:13:14;16.90;99.90
10788;DHT22;5446;50.826;4.380;2023-07-02T06:15:41;16.90;99.90
10788;DHT22;5446;50.826;4.380;2023-07-02T06:18:06;16.90;99.90
10788;DHT22;5446;50.826;4.380;2023-07-02T06:20:32;17.00;99.90
10788;DHT22;5446;50.826;4.380;2023-07-02T06:22:58;17.10;99.90
10788;DHT22;5446;50.826;4.380;2023-07-02T06:25:24;17.10;99.90
10788;DHT22;5446;50.826;4.380;2023-07-02T06:27:49;17.10;99.90
10788;DHT22;5446;50.826;4.380;2023-07-02T06:30:15;17.20;99.90
10788;DHT22;5446;50.826;4.380;2023-07-02T06:32:41;17.20;99.90
10788;DHT22;5446;50.826;4.380;2023-07-02T06:35:07;17.10;99.90
10788;DHT22;5446;50.826;4.380;2023-07-02T06:37:33;17.10;99.90
10788;DHT22;5446;50.826;4.380;2023-07-02T06:39:59;17.20;99.90
10788;DHT22;5446;50.826;4.380;2023-07-02T06:42:25;17.10;99.90
10788;DHT22;5446;50.826;4.380;2023-07-02T06:44:51;17.20;99.90
10788;DHT22;5446;50.826;4.380;2023-07-02T06:47:17;17.30;99.90
10788;DHT22;5446;50.826;4.380;2023-07-02T06:49:43;17.50;99.90
10788;DHT22;5446;50.826;4.380;2023-07-02T06:52:08;17.50;99.90
10788;DHT22;5446;50.826;4.380;2023-07-02T06:54:34;17.40;99.90
10788;DHT22;5446;50.826;4.380;2023-07-02T06:57:01;17.50;99.90
10788;DHT22;5446;50.826;4.380;2023-07-02T06:59:27;17.60;99.90
10788;DHT22;5446;50.826;4.380;2023-07-02T07:01:53;17.80;99.90
10788;DHT22;5446;50.826;4.380;2023-07-02T07:04:18;17.90;99.90
10788;DHT22;5446;50.826;4.380;2023-07-02T07:06:44;18.00;99.90
10788;DHT22;5446;50.826;4.380;2023-07-02T07:09:10;17.80;99.90
10788;DHT22;5446;50.826;4.380;2023-07-02T07:11:36;17.90;99.90
10788;DHT22;5446;50.826;4.380;2023-07-02T07:14:01;17.90;99.90
10788;DHT22;5446;50.826;4.380;2023-07-02T07:16:27;18.00;99.90
10788;DHT22;5446;50.826;4.380;2023-07-02T07:18:53;18.10;99.90
10788;DHT22;5446;50.826;4.380;2023-07-02T07:21:19;18.10;99.90
10788;DHT22;5446;50.826;4.380;2023-07-02T07:23:44;18.20;99.90
10788;DHT22;5446;50.826;4.380;2023-07-02T07:26:10;18.20;99.90
10788;DHT22;5446;50.826;4.380;2023-07-02T07:28:36;18.10;99.90
10788;DHT22;5446;50.826;4.380;2023-07-02T07:31:02;18.10;99.90
10788;DHT22;5446;50.826;4.380;2023-07-02T07:33:28;18.30;99.90
10788;DHT22;5446;50.826;4.380;2023-07-02T07:35:53;18.40;99.90
10788;DHT22;5446;50.826;4.380;2023-07-02T07:38:19;18.60;99.90
10788;DHT22;5446;50.826;4.380;2023-07-02T07:40:45;18.70;99.90
10788;DHT22;5446;50.826;4.380;2023-07-02T07:43:11;18.70;99.90
10788;DHT22;5446;50.826;4.380;2023-07-02T07:45:37;18.60;99.90
10788;DHT22;5446;50.826;4.380;2023-07-02T07:48:05;18.60;99.90
10788;DHT22;5446;50.826;4.380;2023-07-02T07:50:30;18.60;99.90
10788;DHT22;5446;50.826;4.380;2023-07-02T07:52:56;18.70;99.90
10788;DHT22;5446;50.826;4.380;2023-07-02T07:55:22;18.60;99.90
10788;DHT22;5446;50.826;4.380;2023-07-02T07:57:48;18.80;99.90
10788;DHT22;5446;50.826;4.380;2023-07-02T08:00:14;18.90;99.90
10788;DHT22;5446;50.826;4.380;2023-07-02T08:02:40;19.00;99.90
10788;DHT22;5446;50.826;4.380;2023-07-02T08:05:06;19.00;99.90
10788;DHT22;5446;50.826;4.380;2023-07-02T08:07:32;19.10;99.90
10788;DHT22;5446;50.826;4.380;2023-07-02T08:09:59;19.20;99.90
10788;DHT22;5446;50.826;4.380;2023-07-02T08:12:25;19.00;99.90
10788;DHT22;5446;50.826;4.380;2023-07-02T08:14:54;19.30;99.90
10788;DHT22;5446;50.826;4.380;2023-07-02T08:17:20;19.40;99.90
10788;DHT22;5446;50.826;4.380;2023-07-02T08:19:45;19.30;99.90
10788;DHT22;5446;50.826;4.380;2023-07-02T08:22:11;19.20;99.90
10788;DHT22;5446;50.826;4.380;2023-07-02T08:24:37;19.20;99.90
10788;DHT22;5446;50.826;4.380;2023-07-02T08:27:03;19.10;99.90
10788;DHT22;5446;50.826;4.380;2023-07-02T08:29:30;19.30;99.90
10788;DHT22;5446;50.826;4.380;2023-07-02T08:31:56;19.40;99.90
10788;DHT22;5446;50.826;4.380;2023-07-02T08:34:22;19.50;99.90
10788;DHT22;5446;50.826;4.380;2023-07-02T08:36:48;19.60;99.90
10788;DHT22;5446;50.826;4.380;2023-07-02T08:39:14;19.50;99.90
10788;DHT22;5446;50.826;4.380;2023-07-02T08:41:47;19.40;99.90
10788;DHT22;5446;50.826;4.380;2023-07-02T08:44:16;19.30;99.90
10788;DHT22;5446;50.826;4.380;2023-07-02T08:46:43;19.40;99.90
10788;DHT22;5446;50.826;4.380;2023-07-02T08:49:09;19.40;99.90
10788;DHT22;5446;50.826;4.380;2023-07-02T08:51:37;19.60;99.90
10788;DHT22;5446;50.826;4.380;2023-07-02T08:54:03;19.40;99.90
10788;DHT22;5446;50.826;4.380;2023-07-02T08:56:29;19.20;99.90
10788;DHT22;5446;50.826;4.380;2023-07-02T08:58:56;19.30;99.90
10788;DHT22;5446;50.826;4.380;2023-07-02T09:01:21;19.20;99.90
10788;DHT22;5446;50.826;4.380;2023-07-02T09:03:49;19.20;99.90
10788;DHT22;5446;50.826;4.380;2023-07-02T09:06:17;19.30;99.90
10788;DHT22;5446;50.826;4.380;2023-07-02T09:08:43;19.20;99.90
10788;DHT22;5446;50.826;4.380;2023-07-02T09:11:10;19.50;99.90
10788;DHT22;5446;50.826;4.380;2023-07-02T09:13:52;19.60;99.90
10788;DHT22;5446;50.826;4.380;2023-07-02T09:16:31;19.50;99.90
10788;DHT22;5446;50.826;4.380;2023-07-02T09:19:08;19.70;99.90
10788;DHT22;5446;50.826;4.380;2023-07-02T09:21:47;19.90;99.90
10788;DHT22;5446;50.826;4.380;2023-07-02T09:24:21;20.10;99.90
10788;DHT22;5446;50.826;4.380;2023-07-02T09:26:56;20.00;99.90
10788;DHT22;5446;50.826;4.380;2023-07-02T09:29:28;19.80;99.90
10788;DHT22;5446;50.826;4.380;2023-07-02T09:31:58;19.80;99.90
10788;DHT22;5446;50.826;4.380;2023-07-02T09:34:31;19.60;99.90
10788;DHT22;5446;50.826;4.380;2023-07-02T09:37:01;19.80;99.90
10788;DHT22;5446;50.826;4.380;2023-07-02T09:39:28;19.90;99.90
10788;DHT22;5446;50.826;4.380;2023-07-02T09:41:59;20.20;99.90
10788;DHT22;5446;50.826;4.380;2023-07-02T09:44:30;20.10;99.90
10788;DHT22;5446;50.826;4.380;2023-07-02T09:47:07;20.20;99.90
10788;DHT22;5446;50.826;4.380;2023-07-02T09:49:37;20.30;99.90
10788;DHT22;5446;50.826;4.380;2023-07-02T09:52:06;20.00;99.90
10788;DHT22;5446;50.826;4.380;2023-07-02T09:54:31;20.20;99.90
10788;DHT22;5446;50.826;4.380;2023-07-02T09:56:58;20.40;99.90
10788;DHT22;5446;50.826;4.380;2023-07-02T09:59:25;20.30;99.90
10788;DHT22;5446;50.826;4.380;2023-07-02T10:01:51;20.40;99.90
10788;DHT22;5446;50.826;4.380;2023-07-02T10:04:18;20.30;99.90
10788;DHT22;5446;50.826;4.380;2023-07-02T10:06:54;20.10;99.90
10788;DHT22;5446;50.826;4.380;2023-07-02T10:09:41;20.20;99.90
10788;DHT22;5446;50.826;4.380;2023-07-02T10:12:27;20.20;99.90
10788;DHT22;5446;50.826;4.380;2023-07-02T10:14:54;20.30;99.90
10788;DHT22;5446;50.826;4.380;2023-07-02T10:17:35;20.20;99.90
10788;DHT22;5446;50.826;4.380;2023-07-02T10:20:04;20.10;99.90
10788;DHT22;5446;50.826;4.380;2023-07-02T10:22:46;20.20;99.90
10788;DHT22;5446;50.826;4.380;2023-07-02T10:25:26;20.40;99.90
10788;DHT22;5446;50.826;4.380;2023-07-02T10:27:52;20.80;99.90
10788;DHT22;5446;50.826;4.380;2023-07-02T10:30:18;20.90;99.90
10788;DHT22;5446;50.826;4.380;2023-07-02T10:32:44;21.00;99.90
10788;DHT22;5446;50.826;4.380;2023-07-02T10:35:16;21.00;99.90
10788;DHT22;5446;50.826;4.380;2023-07-02T10:37:43;21.00;99.90
10788;DHT22;5446;50.826;4.380;2023-07-02T10:40:09;21.00;99.90
10788;DHT22;5446;50.826;4.380;2023-07-02T10:42:49;20.90;99.90
10788;DHT22;5446;50.826;4.380;2023-07-02T10:45:15;20.70;99.90
10788;DHT22;5446;50.826;4.380;2023-07-02T10:47:42;20.60;99.90
10788;DHT22;5446;50.826;4.380;2023-07-02T10:50:21;20.80;99.90
10788;DHT22;5446;50.826;4.380;2023-07-02T10:52:47;21.20;99.90
10788;DHT22;5446;50.826;4.380;2023-07-02T10:55:23;21.20;99.90
10788;DHT22;5446;50.826;4.380;2023-07-02T10:57:50;21.30;99.90
10788;DHT22;5446;50.826;4.380;2023-07-02T11:00:17;21.10;99.90
10788;DHT22;5446;50.826;4.380;2023-07-02T11:02:43;21.10;99.90
10788;DHT22;5446;50.826;4.380;2023-07-02T11:05:09;21.20;99.90
10788;DHT22;5446;50.826;4.380;2023-07-02T11:07:42;21.20;99.90
10788;DHT22;5446;50.826;4.380;2023-07-02T11:10:08;21.20;99.90
10788;DHT22;5446;50.826;4.380;2023-07-02T11:12:35;21.30;99.90
10788;DHT22;5446;50.826;4.380;2023-07-02T11:15:15;21.10;99.90
10788;DHT22;5446;50.826;4.380;2023-07-02T11:17:41;21.00;99.90
10788;DHT22;5446;50.826;4.380;2023-07-02T11:20:12;20.90;99.90
10788;DHT22;5446;50.826;4.380;2023-07-02T11:22:38;20.90;99.90
10788;DHT22;5446;50.826;4.380;2023-07-02T11:27:40;20.90;99.90
10788;DHT22;5446;50.826;4.380;2023-07-02T11:30:06;20.90;99.90
10788;DHT22;5446;50.826;4.380;2023-07-02T11:32:46;21.20;99.90
10788;DHT22;5446;50.826;4.380;2023-07-02T11:35:14;21.00;99.90
10788;DHT22;5446;50.826;4.380;2023-07-02T11:37:40;20.90;99.90
10788;DHT22;5446;50.826;4.380;2023-07-02T11:40:06;20.90;99.90
10788;DHT22;5446;50.826;4.380;2023-07-02T11:42:31;20.90;99.90
10788;DHT22;5446;50.826;4.380;2023-07-02T11:44:57;21.10;99.90
10788;DHT22;5446;50.826;4.380;2023-07-02T11:47:23;21.10;99.90
10788;DHT22;5446;50.826;4.380;2023-07-02T11:49:50;21.10;99.90
10788;DHT22;5446;50.826;4.380;2023-07-02T11:52:16;21.20;99.90
10788;DHT22;5446;50.826;4.380;2023-07-02T11:54:41;21.40;99.90
10788;DHT22;5446;50.826;4.380;2023-07-02T11:57:08;21.60;99.90
10788;DHT22;5446;50.826;4.380;2023-07-02T11:59:34;21.70;99.90
10788;DHT22;5446;50.826;4.380;2023-07-02T12:02:01;21.50;99.90
10788;DHT22;5446;50.826;4.380;2023-07-02T12:04:27;21.50;99.90
10788;DHT22;5446;50.826;4.380;2023-07-02T12:06:53;21.40;99.90
10788;DHT22;5446;50.826;4.380;2023-07-02T12:09:19;21.60;99.90
10788;DHT22;5446;50.826;4.380;2023-07-02T12:11:44;21.50;99.90
10788;DHT22;5446;50.826;4.380;2023-07-02T12:14:11;21.40;99.90
10788;DHT22;5446;50.826;4.380;2023-07-02T12:16:37;21.50;99.90
10788;DHT22;5446;50.826;4.380;2023-07-02T12:19:03;21.40;99.90
10788;DHT22;5446;50.826;4.380;2023-07-02T12:21:29;21.40;99.90
10788;DHT22;5446;50.826;4.380;2023-07-02T12:23:54;21.50;99.90
10788;DHT22;5446;50.826;4.380;2023-07-02T12:26:20;21.50;99.90
10788;DHT22;5446;50.826;4.380;2023-07-02T12:28:46;21.60;99.90
10788;DHT22;5446;50.826;4.380;2023-07-02T12:31:12;21.70;99.90
10788;DHT22;5446;50.826;4.380;2023-07-02T12:33:38;22.00;99.90
10788;DHT22;5446;50.826;4.380;2023-07-02T12:36:05;22.10;99.90
10788;DHT22;5446;50.826;4.380;2023-07-02T12:38:30;22.10;99.90
10788;DHT22;5446;50.826;4.380;2023-07-02T12:40:56;22.10;99.90
10788;DHT22;5446;50.826;4.380;2023-07-02T12:43:23;22.00;99.90
10788;DHT22;5446;50.826;4.380;2023-07-02T12:45:50;22.00;99.90
10788;DHT22;5446;50.826;4.380;2023-07-02T12:48:16;21.90;99.90
10788;DHT22;5446;50.826;4.380;2023-07-02T12:50:56;21.90;99.90
10788;DHT22;5446;50.826;4.380;2023-07-02T12:53:22;21.70;99.90
10788;DHT22;5446;50.826;4.380;2023-07-02T12:55:48;21.80;99.90
10788;DHT22;5446;50.826;4.380;2023-07-02T12:58:14;22.00;99.90
10788;DHT22;5446;50.826;4.380;2023-07-02T13:00:40;22.00;99.90
10788;DHT22;5446;50.826;4.380;2023-07-02T13:03:09;22.10;99.90
10788;DHT22;5446;50.826;4.380;2023-07-02T13:05:35;22.50;99.90
10788;DHT22;5446;50.826;4.380;2023-07-02T13:08:01;22.50;99.90
10788;DHT22;5446;50.826;4.380;2023-07-02T13:10:29;22.40;99.90
10788;DHT22;5446;50.826;4.380;2023-07-02T13:12:55;22.20;99.90
10788;DHT22;5446;50.826;4.380;2023-07-02T13:15:21;22.30;99.90
10788;DHT22;5446;50.826;4.380;2023-07-02T13:17:47;22.30;99.90
10788;DHT22;5446;50.826;4.380;2023-07-02T13:20:13;22.40;99.90
10788;DHT22;5446;50.826;4.380;2023-07-02T13:22:39;22.40;99.90
10788;DHT22;5446;50.826;4.380;2023-07-02T13:25:06;22.80;99.90
10788;DHT22;5446;50.826;4.380;2023-07-02T13:27:32;23.00;99.90
10788;DHT22;5446;50.826;4.380;2023-07-02T13:29:58;22.60;99.90
10788;DHT22;5446;50.826;4.380;2023-07-02T13:32:24;22.60;99.90
10788;DHT22;5446;50.826;4.380;2023-07-02T13:34:50;22.50;99.90
10788;DHT22;5446;50.826;4.380;2023-07-02T13:37:21;22.50;99.90
10788;DHT22;5446;50.826;4.380;2023-07-02T13:39:48;22.40;99.90
10788;DHT22;5446;50.826;4.380;2023-07-02T13:42:14;22.50;99.90
10788;DHT22;5446;50.826;4.380;2023-07-02T13:44:40;22.60;99.90
10788;DHT22;5446;50.826;4.380;2023-07-02T13:47:07;22.40;99.90
10788;DHT22;5446;50.826;4.380;2023-07-02T13:49:33;22.40;99.90
10788;DHT22;5446;50.826;4.380;2023-07-02T13:51:59;22.40;99.90
10788;DHT22;5446;50.826;4.380;2023-07-02T13:54:25;22.40;99.90
10788;DHT22;5446;50.826;4.380;2023-07-02T13:56:52;22.50;99.90
10788;DHT22;5446;50.826;4.380;2023-07-02T13:59:19;22.60;99.90
10788;DHT22;5446;50.826;4.380;2023-07-02T14:01:45;22.70;99.90
10788;DHT22;5446;50.826;4.380;2023-07-02T14:04:12;22.70;99.90
10788;DHT22;5446;50.826;4.380;2023-07-02T14:06:37;22.80;99.90
10788;DHT22;5446;50.826;4.380;2023-07-02T14:09:04;22.70;99.90
10788;DHT22;5446;50.826;4.380;2023-07-02T14:11:33;23.00;99.90
10788;DHT22;5446;50.826;4.380;2023-07-02T14:13:58;22.90;99.90
10788;DHT22;5446;50.826;4.380;2023-07-02T14:16:24;23.10;99.90
10788;DHT22;5446;50.826;4.380;2023-07-02T14:18:51;23.10;99.90
10788;DHT22;5446;50.826;4.380;2023-07-02T14:21:17;23.10;99.90
10788;DHT22;5446;50.826;4.380;2023-07-02T14:23:43;23.00;99.90
10788;DHT22;5446;50.826;4.380;2023-07-02T14:26:09;23.00;99.90
10788;DHT22;5446;50.826;4.380;2023-07-02T14:28:35;23.20;99.90
10788;DHT22;5446;50.826;4.380;2023-07-02T14:31:02;23.40;99.90
10788;DHT22;5446;50.826;4.380;2023-07-02T14:33:31;23.40;99.90
10788;DHT22;5446;50.826;4.380;2023-07-02T14:35:57;23.60;99.90
10788;DHT22;5446;50.826;4.380;2023-07-02T14:38:23;23.30;99.90
10788;DHT22;5446;50.826;4.380;2023-07-02T14:40:49;23.20;99.90
10788;DHT22;5446;50.826;4.380;2023-07-02T14:43:16;23.50;99.90
10788;DHT22;5446;50.826;4.380;2023-07-02T14:45:48;23.70;99.90
10788;DHT22;5446;50.826;4.380;2023-07-02T14:48:14;23.90;99.90
10788;DHT22;5446;50.826;4.380;2023-07-02T14:50:57;23.80;99.90
10788;DHT22;5446;50.826;4.380;2023-07-02T14:53:24;23.70;99.90
10788;DHT22;5446;50.826;4.380;2023-07-02T14:55:51;24.00;99.90
10788;DHT22;5446;50.826;4.380;2023-07-02T14:58:18;24.00;99.90
10788;DHT22;5446;50.826;4.380;2023-07-02T15:00:49;24.00;99.90
10788;DHT22;5446;50.826;4.380;2023-07-02T15:03:16;24.00;99.90
10788;DHT22;5446;50.826;4.380;2023-07-02T15:05:42;24.00;99.90
10788;DHT22;5446;50.826;4.380;2023-07-02T15:08:08;24.30;99.90
10788;DHT22;5446;50.826;4.380;2023-07-02T15:10:35;24.50;99.90
10788;DHT22;5446;50.826;4.380;2023-07-02T15:13:05;24.60;99.90
10788;DHT22;5446;50.826;4.380;2023-07-02T15:15:30;24.10;99.90
10788;DHT22;5446;50.826;4.380;2023-07-02T15:17:56;23.50;99.90
10788;DHT22;5446;50.826;4.380;2023-07-02T15:20:22;23.50;99.90
10788;DHT22;5446;50.826;4.380;2023-07-02T15:22:48;23.80;99.90
10788;DHT22;5446;50.826;4.380;2023-07-02T15:25:13;24.30;99.90
10788;DHT22;5446;50.826;4.380;2023-07-02T15:27:39;24.80;99.90
10788;DHT22;5446;50.826;4.380;2023-07-02T15:30:05;24.70;99.90
10788;DHT22;5446;50.826;4.380;2023-07-02T15:32:31;24.30;99.90
10788;DHT22;5446;50.826;4.380;2023-07-02T15:34:58;24.30;99.90
10788;DHT22;5446;50.826;4.380;2023-07-02T15:37:24;24.20;99.90
10788;DHT22;5446;50.826;4.380;2023-07-02T15:39:50;24.40;99.90
10788;DHT22;5446;50.826;4.380;2023-07-02T15:42:15;24.10;99.90
10788;DHT22;5446;50.826;4.380;2023-07-02T15:44:41;23.70;99.90
10788;DHT22;5446;50.826;4.380;2023-07-02T15:47:07;23.80;99.90
10788;DHT22;5446;50.826;4.380;2023-07-02T15:49:32;24.20;99.90
10788;DHT22;5446;50.826;4.380;2023-07-02T15:51:58;24.60;99.90